createdAt,value
2016-07-01T00:00:10.551Z,78.05
2016-07-01T00:15:12.447Z,77.82
2016-07-01T00:29:59.172Z,77.49
2016-07-01T00:45:01.187Z,77.3
2016-07-01T01:00:11.661Z,77.26
2016-07-01T01:15:03.803Z,77.61
2016-07-01T01:30:03.813Z,77.68
2016-07-01T01:45:03.801Z,77.93
2016-07-01T02:00:03.787Z,78.59
2016-07-01T02:15:07.878Z,78.93
2016-07-01T02:30:03.829Z,79.67
2016-07-01T02:44:59.211Z,79.57
2016-07-01T03:00:03.831Z,80.07
2016-07-01T03:15:03.802Z,80.39
2016-07-01T03:30:03.898Z,80.51
2016-07-01T03:45:05.418Z,80.38
2016-07-01T03:59:59.216Z,79.82
2016-07-01T04:15:04.313Z,79.1
2016-07-01T04:30:03.874Z,79.41
2016-07-01T04:45:03.867Z,78.88
2016-07-01T05:00:05.463Z,78.93
2016-07-01T05:15:03.831Z,79.3
2016-07-01T05:30:04.156Z,78.23
2016-07-01T05:44:59.250Z,76.87
2016-07-01T05:59:59.259Z,76.62
2016-07-01T06:14:59.266Z,77.34
2016-07-01T06:29:59.303Z,77.32
2016-07-01T06:44:59.341Z,77.26
2016-07-01T07:00:03.923Z,76.42
2016-07-01T07:15:01.293Z,77.27
2016-07-01T07:30:03.880Z,76.78
2016-07-01T07:44:59.355Z,75.07
2016-07-01T07:59:59.306Z,66.88
2016-07-01T08:15:01.317Z,65.77
2016-07-01T08:30:05.641Z,70.78
2016-07-01T08:45:05.598Z,71.28
2016-07-01T09:00:04.387Z,71.55
2016-07-01T09:15:05.643Z,71.71
2016-07-01T09:30:05.656Z,70.2
2016-07-01T09:44:59.350Z,69.02
2016-07-01T09:59:59.397Z,69.18
2016-07-01T10:14:59.362Z,70.18
2016-07-01T10:30:03.956Z,65.4
2016-07-01T10:45:03.125Z,67.44
2016-07-01T10:59:59.396Z,66.73
2016-07-01T11:14:59.371Z,67.99
2016-07-01T11:30:01.376Z,67.69
2016-07-01T11:45:01.382Z,66.36
2016-07-01T12:00:05.751Z,64.02
2016-07-01T12:15:13.908Z,64.61
2016-07-01T12:30:05.594Z,67.27
2016-07-01T12:45:04.323Z,65.45
2016-07-01T13:00:05.720Z,67.47
2016-07-01T13:15:04.037Z,67.12
2016-07-01T13:30:04.022Z,66.54
2016-07-01T13:45:04.029Z,66.06
2016-07-01T13:59:59.413Z,65.75
2016-07-01T14:14:59.422Z,64.64
2016-07-01T14:30:04.415Z,66.14
2016-07-01T14:45:04.379Z,65.41
2016-07-01T15:00:01.555Z,65.07
2016-07-01T15:14:59.465Z,67.05
2016-07-01T15:29:59.513Z,65.15
2016-07-01T15:45:04.468Z,65.06
2016-07-01T16:00:04.132Z,66.23
2016-07-01T16:14:59.533Z,65.44
2016-07-01T16:30:01.514Z,65.69
2016-07-01T16:45:01.626Z,66.96
2016-07-01T17:00:05.781Z,66.53
2016-07-01T17:15:04.476Z,66.36
2016-07-01T17:30:04.141Z,68.43
2016-07-01T17:45:04.129Z,65.69
2016-07-01T18:00:04.113Z,65.14
2016-07-01T18:15:01.575Z,64.32
2016-07-01T18:30:04.146Z,66.46
2016-07-01T18:45:04.143Z,68.42
2016-07-01T18:59:59.582Z,69.38
2016-07-01T19:14:59.582Z,71.04
2016-07-01T19:30:01.706Z,71.81
2016-07-01T19:45:05.772Z,72.83
2016-07-01T19:59:59.614Z,73.13
2016-07-01T20:14:59.591Z,71.78
2016-07-01T20:30:04.259Z,73.29
2016-07-01T20:44:59.606Z,71.9
2016-07-01T21:00:04.189Z,73.44
2016-07-01T21:14:59.593Z,75.22
2016-07-01T21:30:04.551Z,76.83
2016-07-01T21:44:59.594Z,76.36
2016-07-01T21:59:59.606Z,77.96
2016-07-01T22:15:04.190Z,78.38
2016-07-01T22:30:04.288Z,77.96
2016-07-01T22:45:18.233Z,78.9
2016-07-01T23:00:04.224Z,78.55
2016-07-01T23:15:05.827Z,78.55
2016-07-01T23:30:04.283Z,77.39
2016-07-01T23:45:10.990Z,75.27
